Time;durP1;ratioP1;P1;durP2;ratioP2;P2;SDS_P1;SDS_P2;PMS_P1;PMS_P2;Temp;Humidity;BMP_temperature;BMP_pressure;BME280_temperature;BME280_humidity;BME280_pressure;Samples;Min_cycle;Max_cycle;Signal;HPM_P1;HPM_P2
2023/06/10 05:00:46;;;;;;;7.20;6.60;;;19.90;97.20;;;;;;1727396;28;20204;-68
2023/06/10 05:01:36;;;;;;;8.07;7.28;;;19.90;97.20;;;;;;1727178;28;20204;-69
2023/06/10 05:02:28;;;;;;;7.60;7.00;;;19.90;97.20;;;;;;1727460;28;20201;-69
2023/06/10 05:03:19;;;;;;;7.43;6.82;;;19.90;97.20;;;;;;1727228;28;20212;-69
2023/06/10 05:04:10;;;;;;;6.37;5.90;;;20.00;97.20;;;;;;1727347;28;20215;-69
2023/06/10 05:05:01;;;;;;;6.93;6.43;;;20.00;97.20;;;;;;1727219;28;20204;-69
2023/06/10 05:05:53;;;;;;;6.50;6.00;;;20.00;97.20;;;;;;1726731;28;20668;-69
2023/06/10 05:06:44;;;;;;;6.50;6.00;;;20.00;97.20;;;;;;1727243;28;20204;-69
2023/06/10 05:07:35;;;;;;;7.17;6.47;;;20.10;97.20;;;;;;1726993;28;20236;-69
2023/06/10 05:08:26;;;;;;;7.13;6.13;;;20.10;97.20;;;;;;1727595;28;20201;-70
2023/06/10 05:09:18;;;;;;;6.90;6.30;;;20.10;97.20;;;;;;1728657;28;20196;-69
2023/06/10 05:10:09;;;;;;;6.55;6.05;;;20.10;97.20;;;;;;1728769;28;20208;-69
2023/06/10 05:11:01;;;;;;;7.35;6.05;;;20.20;97.20;;;;;;1728672;28;20267;-70
2023/06/10 05:11:53;;;;;;;6.75;6.15;;;20.20;97.20;;;;;;1729423;28;20295;-70
2023/06/10 05:12:45;;;;;;;6.22;5.82;;;20.20;97.20;;;;;;1731639;28;20195;-69
2023/06/10 05:13:36;;;;;;;6.47;5.97;;;20.20;97.20;;;;;;1735323;28;20223;-69
2023/06/10 05:14:27;;;;;;;6.17;5.67;;;20.20;97.20;;;;;;1729616;28;20214;-70
2023/06/10 05:15:18;;;;;;;6.40;5.90;;;20.30;97.20;;;;;;1728538;28;20454;-70
2023/06/10 05:16:11;;;;;;;6.80;6.30;;;20.30;97.20;;;;;;1728162;28;20207;-70
2023/06/10 05:17:02;;;;;;;6.40;5.90;;;20.30;97.20;;;;;;1728530;28;20447;-69
2023/06/10 05:17:54;;;;;;;10.20;6.00;;;20.30;97.20;;;;;;1729024;28;20287;-69
2023/06/10 05:18:44;;;;;;;6.75;6.22;;;20.30;97.20;;;;;;1735400;28;20449;-70
2023/06/10 05:19:37;;;;;;;6.27;5.80;;;20.40;97.20;;;;;;1735349;28;20202;-69
2023/06/10 05:20:28;;;;;;;6.20;5.70;;;20.40;97.20;;;;;;1735272;28;20240;-69
2023/06/10 05:21:20;;;;;;;6.00;5.60;;;20.40;97.20;;;;;;1735304;28;20569;-69
2023/06/10 05:22:11;;;;;;;6.40;5.90;;;20.40;97.20;;;;;;1735279;28;20207;-69
2023/06/10 05:23:02;;;;;;;6.90;6.30;;;20.40;97.20;;;;;;1735409;28;20200;-70
2023/06/10 05:23:53;;;;;;;6.05;5.50;;;20.50;97.20;;;;;;1735346;28;20207;-69
2023/06/10 05:24:45;;;;;;;6.30;5.80;;;20.50;97.20;;;;;;1735413;28;20207;-69
2023/06/10 05:25:36;;;;;;;6.50;6.00;;;20.50;97.20;;;;;;1734790;28;20573;-69
2023/06/10 05:26:28;;;;;;;6.47;5.97;;;20.50;97.20;;;;;;1735402;28;20567;-70
2023/06/10 05:27:19;;;;;;;6.22;5.70;;;20.50;97.20;;;;;;1734897;28;20207;-70
2023/06/10 05:28:11;;;;;;;6.60;6.10;;;20.60;97.20;;;;;;1735233;28;20224;-69
2023/06/10 05:29:02;;;;;;;6.30;5.80;;;20.60;97.20;;;;;;1735337;28;20214;-69
2023/06/10 05:29:52;;;;;;;6.60;6.10;;;20.60;97.20;;;;;;1729219;28;20279;-69
2023/06/10 05:30:44;;;;;;;6.72;6.13;;;20.60;97.20;;;;;;1728061;28;20232;-70
2023/06/10 05:31:37;;;;;;;6.00;5.50;;;20.60;97.20;;;;;;1728487;28;20212;-70
2023/06/10 05:32:28;;;;;;;6.07;5.57;;;20.70;97.20;;;;;;1728422;28;20263;-70
2023/06/10 05:33:19;;;;;;;6.47;5.97;;;20.70;97.20;;;;;;1728447;28;20200;-70
2023/06/10 05:34:11;;;;;;;6.97;6.00;;;20.70;97.20;;;;;;1728550;28;20198;-70
2023/06/10 05:35:03;;;;;;;6.30;5.70;;;20.70;97.20;;;;;;1728470;28;20212;-69
2023/06/10 05:35:55;;;;;;;6.68;6.07;;;20.70;97.20;;;;;;1728075;28;20224;-69
2023/06/10 05:36:46;;;;;;;6.15;5.72;;;20.80;97.20;;;;;;1728290;28;20208;-69
2023/06/10 05:37:37;;;;;;;7.33;6.73;;;20.80;97.20;;;;;;1728385;28;20196;-69
2023/06/10 05:38:28;;;;;;;6.85;6.30;;;20.80;97.20;;;;;;1728475;28;20207;-70
2023/06/10 05:39:20;;;;;;;7.40;6.70;;;20.80;97.20;;;;;;1728073;28;20200;-69
2023/06/10 05:40:11;;;;;;;6.70;6.10;;;20.80;97.20;;;;;;1728384;28;20231;-69
2023/06/10 05:41:03;;;;;;;7.57;6.32;;;20.80;97.20;;;;;;1728524;28;20204;-69
2023/06/10 05:41:54;;;;;;;7.00;6.50;;;20.80;97.20;;;;;;1728379;28;20653;-69
2023/06/10 05:42:46;;;;;;;6.17;5.50;;;20.90;97.20;;;;;;1728388;28;20673;-69
2023/06/10 05:43:36;;;;;;;5.85;5.43;;;20.90;97.20;;;;;;1727947;28;20607;-69
2023/06/10 05:44:28;;;;;;;6.73;6.23;;;20.90;97.20;;;;;;1728455;28;20208;-71
2023/06/10 05:45:19;;;;;;;6.57;6.07;;;20.90;97.20;;;;;;1728264;28;20216;-69
2023/06/10 05:46:10;;;;;;;7.00;6.40;;;21.00;97.20;;;;;;1728074;28;20722;-69
2023/06/10 05:47:03;;;;;;;6.25;5.75;;;21.00;97.20;;;;;;1728457;28;20204;-70
2023/06/10 05:47:55;;;;;;;6.10;5.53;;;21.00;97.20;;;;;;1728194;28;20264;-70
2023/06/10 05:48:46;;;;;;;6.00;5.50;;;21.10;97.20;;;;;;1728339;28;20205;-69
2023/06/10 05:49:38;;;;;;;7.10;6.40;;;21.10;97.20;;;;;;1728357;28;20201;-69
2023/06/10 05:50:28;;;;;;;5.97;5.50;;;21.10;97.20;;;;;;1728262;28;20566;-69
2023/06/10 05:51:20;;;;;;;7.23;6.10;;;21.10;97.20;;;;;;1728323;28;20660;-70
2023/06/10 05:52:11;;;;;;;7.30;6.25;;;21.10;97.20;;;;;;1728372;28;20203;-69
2023/06/10 05:53:02;;;;;;;7.80;6.80;;;21.20;97.20;;;;;;1728044;28;20211;-69
2023/06/10 05:53:53;;;;;;;6.40;5.80;;;21.20;97.20;;;;;;1728382;28;20209;-68
2023/06/10 05:54:45;;;;;;;7.10;6.50;;;21.20;97.20;;;;;;1728414;28;20200;-69
2023/06/10 05:55:36;;;;;;;7.03;6.32;;;21.30;97.20;;;;;;1728084;28;20450;-69
2023/06/10 05:56:27;;;;;;;7.33;6.73;;;21.30;97.20;;;;;;1727957;28;20196;-68
2023/06/10 05:57:19;;;;;;;6.43;5.82;;;21.30;97.20;;;;;;1727949;28;20294;-69
2023/06/10 05:58:12;;;;;;;7.30;6.05;;;21.30;97.20;;;;;;1728333;28;20287;-70
2023/06/10 05:59:02;;;;;;;8.02;6.80;;;21.40;97.20;;;;;;1728397;28;20266;-69
2023/06/10 05:59:54;;;;;;;9.33;5.70;;;21.40;97.20;;;;;;1728401;28;20296;-69
2023/06/10 06:00:45;;;;;;;11.00;6.30;;;21.40;97.20;;;;;;1727897;28;20224;-69
2023/06/10 06:01:37;;;;;;;6.60;6.00;;;21.50;97.20;;;;;;1728323;28;20205;-70
2023/06/10 06:02:29;;;;;;;8.32;6.53;;;21.50;97.20;;;;;;1728351;28;20608;-69
2023/06/10 06:03:20;;;;;;;9.63;6.20;;;21.50;97.20;;;;;;1728035;28;20197;-69
2023/06/10 06:04:11;;;;;;;6.95;6.35;;;21.50;97.20;;;;;;1728299;28;20203;-69
2023/06/10 06:05:03;;;;;;;6.37;5.80;;;21.60;97.20;;;;;;1728248;28;20215;-69
2023/06/10 06:05:54;;;;;;;8.40;6.40;;;21.60;97.20;;;;;;1728003;28;20601;-70
2023/06/10 06:06:45;;;;;;;6.53;5.93;;;21.60;97.20;;;;;;1728209;28;20200;-69
2023/06/10 06:07:36;;;;;;;6.88;6.30;;;21.60;97.20;;;;;;1728229;28;20205;-68
2023/06/10 06:08:28;;;;;;;7.00;6.40;;;21.70;97.20;;;;;;1728197;28;20228;-68
2023/06/10 06:09:19;;;;;;;6.97;6.28;;;21.70;97.20;;;;;;1728061;28;20212;-69
2023/06/10 06:10:10;;;;;;;6.93;6.23;;;21.70;97.20;;;;;;1728252;28;20272;-69
2023/06/10 06:11:01;;;;;;;7.22;6.18;;;21.70;97.20;;;;;;1728378;28;20224;-68
2023/06/10 06:11:53;;;;;;;6.30;5.80;;;21.80;97.20;;;;;;1728300;28;20200;-69
2023/06/10 06:12:44;;;;;;;6.50;5.90;;;21.80;97.20;;;;;;1728245;28;20831;-68
2023/06/10 06:13:36;;;;;;;10.63;6.95;;;21.80;97.20;;;;;;1728031;28;20555;-68
2023/06/10 06:14:26;;;;;;;6.57;6.05;;;21.80;97.20;;;;;;1728021;28;20193;-68
2023/06/10 06:15:18;;;;;;;6.33;5.77;;;21.90;97.20;;;;;;1728081;28;20200;-69
2023/06/10 06:16:09;;;;;;;13.40;7.13;;;21.90;97.20;;;;;;1727908;28;20200;-69
2023/06/10 06:17:00;;;;;;;8.63;6.33;;;21.90;97.20;;;;;;1728100;28;20204;-69
2023/06/10 06:17:53;;;;;;;6.40;5.80;;;22.00;97.20;;;;;;1728237;28;20200;-69
2023/06/10 06:18:44;;;;;;;6.65;5.95;;;22.00;97.20;;;;;;1728170;28;20219;-69
2023/06/10 06:19:35;;;;;;;7.10;6.50;;;22.00;97.20;;;;;;1727702;28;20204;-69
2023/06/10 06:20:27;;;;;;;10.57;6.87;;;22.00;97.20;;;;;;1728121;28;20200;-69
2023/06/10 06:21:18;;;;;;;6.38;5.78;;;22.10;97.20;;;;;;1728173;28;20204;-67
2023/06/10 06:22:09;;;;;;;7.03;6.43;;;22.10;97.20;;;;;;1728232;28;20198;-68
2023/06/10 06:23:00;;;;;;;7.00;6.40;;;22.10;97.20;;;;;;1727809;28;20227;-71
2023/06/10 06:23:52;;;;;;;7.13;6.40;;;22.20;97.20;;;;;;1728342;28;20199;-71
2023/06/10 06:24:42;;;;;;;6.72;6.22;;;22.20;97.20;;;;;;1728166;28;20200;-70
2023/06/10 06:25:35;;;;;;;6.33;5.83;;;22.20;97.20;;;;;;1727969;28;20207;-70
2023/06/10 06:26:26;;;;;;;7.25;5.70;;;22.30;97.20;;;;;;1728261;28;20196;-69
2023/06/10 06:27:18;;;;;;;8.10;6.35;;;22.30;97.20;;;;;;1728156;28;20259;-70
2023/06/10 06:28:10;;;;;;;7.35;6.65;;;22.30;97.20;;;;;;1728125;28;20200;-70
2023/06/10 06:29:01;;;;;;;6.82;6.32;;;22.30;97.20;;;;;;1727804;28;20204;-70
2023/06/10 06:29:52;;;;;;;7.30;6.70;;;22.30;97.20;;;;;;1728160;28;20220;-70
2023/06/10 06:30:44;;;;;;;6.37;5.87;;;22.40;97.20;;;;;;1728031;28;20228;-70
2023/06/10 06:31:35;;;;;;;8.52;6.80;;;22.40;97.20;;;;;;1728172;28;20587;-70
2023/06/10 06:32:27;;;;;;;7.90;7.10;;;22.40;97.20;;;;;;1728204;28;20193;-69
2023/06/10 06:33:19;;;;;;;7.05;6.20;;;22.40;97.20;;;;;;1727996;28;22175;-70
2023/06/10 06:34:11;;;;;;;8.90;6.65;;;22.40;97.20;;;;;;1728312;28;20338;-71
2023/06/10 06:35:02;;;;;;;6.60;6.00;;;22.40;97.20;;;;;;1728108;28;20582;-70
2023/06/10 06:35:53;;;;;;;7.53;6.83;;;22.50;97.20;;;;;;1727938;28;20222;-70
2023/06/10 06:36:44;;;;;;;8.05;6.70;;;22.50;97.20;;;;;;1727996;28;20450;-70
2023/06/10 06:37:36;;;;;;;7.30;6.70;;;22.50;97.20;;;;;;1728086;28;20212;-71
2023/06/10 06:38:27;;;;;;;7.88;7.18;;;22.50;97.20;;;;;;1728184;28;20221;-71
2023/06/10 06:39:19;;;;;;;8.17;7.07;;;22.60;97.20;;;;;;1728089;28;20196;-70
2023/06/10 06:40:10;;;;;;;6.88;6.28;;;22.60;97.20;;;;;;1728151;28;20200;-70
2023/06/10 06:41:05;;;;;;;7.10;6.40;;;22.60;97.20;;;;;;1727979;28;20227;-71
2023/06/10 06:41:56;;;;;;;6.75;6.25;;;22.60;97.20;;;;;;1728016;28;20295;-70
2023/06/10 06:42:48;;;;;;;7.10;6.40;;;22.70;97.20;;;;;;1728051;28;20219;-70
2023/06/10 06:43:38;;;;;;;7.25;6.65;;;22.70;97.20;;;;;;1727759;28;20316;-70
2023/06/10 06:44:30;;;;;;;18.73;7.20;;;22.70;97.20;;;;;;1728143;28;20200;-71
2023/06/10 06:45:21;;;;;;;6.70;6.10;;;22.70;97.20;;;;;;1728022;28;20219;-72
2023/06/10 06:46:13;;;;;;;6.53;5.93;;;22.80;97.20;;;;;;1727923;28;20192;-71
2023/06/10 06:47:04;;;;;;;8.48;6.63;;;22.80;97.20;;;;;;1728007;28;20208;-71
2023/06/10 06:47:56;;;;;;;7.03;6.38;;;22.80;97.20;;;;;;1727986;28;20208;-71
2023/06/10 06:48:48;;;;;;;7.50;6.03;;;22.80;97.20;;;;;;1727883;28;20817;-71
2023/06/10 06:49:40;;;;;;;7.05;6.38;;;22.90;97.20;;;;;;1728143;28;20648;-72
2023/06/10 06:50:31;;;;;;;7.07;6.20;;;22.90;97.20;;;;;;1728035;28;20583;-70
2023/06/10 06:51:22;;;;;;;7.07;6.30;;;22.90;97.20;;;;;;1728173;28;20219;-70
2023/06/10 06:52:13;;;;;;;7.10;6.40;;;23.00;97.20;;;;;;1728076;28;20204;-71
2023/06/10 06:53:06;;;;;;;6.77;5.90;;;23.00;97.20;;;;;;1727801;28;20211;-71
2023/06/10 06:53:58;;;;;;;6.72;6.03;;;23.00;97.20;;;;;;1721352;28;20707;-70
2023/06/10 06:54:50;;;;;;;6.55;5.95;;;23.10;97.20;;;;;;1721316;28;20204;-70
2023/06/10 06:55:41;;;;;;;7.10;6.40;;;23.10;97.20;;;;;;1720956;28;20212;-70
2023/06/10 06:56:32;;;;;;;6.30;5.90;;;23.20;97.20;;;;;;1721217;28;20204;-70
2023/06/10 06:57:23;;;;;;;6.80;6.20;;;23.20;97.20;;;;;;1721060;28;20202;-72
2023/06/10 06:58:15;;;;;;;6.53;6.03;;;23.20;97.20;;;;;;1721226;28;20234;-70
2023/06/10 06:59:06;;;;;;;7.70;6.50;;;23.30;97.20;;;;;;1721185;28;20205;-71
2023/06/10 06:59:58;;;;;;;7.13;6.53;;;23.30;97.20;;;;;;1720986;28;20292;-71
2023/06/10 07:00:48;;;;;;;6.38;5.85;;;23.30;97.20;;;;;;1727062;28;20224;-71
2023/06/10 07:01:40;;;;;;;7.73;7.00;;;23.40;97.20;;;;;;1727746;28;20275;-70
2023/06/10 07:02:31;;;;;;;7.25;6.43;;;23.40;97.20;;;;;;1728083;28;20200;-70
2023/06/10 07:03:23;;;;;;;7.80;6.85;;;23.50;97.20;;;;;;1727859;28;20204;-70
2023/06/10 07:04:16;;;;;;;13.85;7.38;;;23.50;97.20;;;;;;1727168;28;20715;-71
2023/06/10 07:05:08;;;;;;;12.50;6.68;;;23.50;97.20;;;;;;1727881;28;20724;-71
2023/06/10 07:05:59;;;;;;;10.07;6.97;;;23.50;97.20;;;;;;1727707;28;20211;-70
2023/06/10 07:06:51;;;;;;;8.07;6.10;;;23.50;97.20;;;;;;1727764;28;20629;-70
2023/06/10 07:07:42;;;;;;;7.47;6.55;;;23.60;97.20;;;;;;1727914;28;20236;-71
2023/06/10 07:08:33;;;;;;;10.30;8.13;;;23.60;97.20;;;;;;1727466;28;20216;-71
2023/06/10 07:09:24;;;;;;;11.10;6.80;;;23.70;97.20;;;;;;1727880;28;20224;-70
2023/06/10 07:10:16;;;;;;;7.90;7.10;;;23.70;97.20;;;;;;1727496;28;20197;-71
2023/06/10 07:11:07;;;;;;;7.07;6.53;;;23.80;97.20;;;;;;1727675;28;20334;-71
2023/06/10 07:12:00;;;;;;;6.93;6.43;;;23.80;97.20;;;;;;1727384;28;20262;-70
2023/06/10 07:12:51;;;;;;;9.38;6.45;;;23.80;97.20;;;;;;1727645;28;20209;-71
2023/06/10 07:13:43;;;;;;;11.30;6.30;;;23.80;97.20;;;;;;1727781;28;20189;-71
2023/06/10 07:14:34;;;;;;;11.68;6.55;;;23.80;97.20;;;;;;1727712;28;20443;-71
2023/06/10 07:15:25;;;;;;;7.97;6.78;;;23.90;97.20;;;;;;1727798;28;20193;-70
2023/06/10 07:16:17;;;;;;;9.60;6.67;;;23.90;97.20;;;;;;1726795;28;20196;-70
2023/06/10 07:17:08;;;;;;;7.70;6.85;;;24.00;97.20;;;;;;1727534;28;20452;-71
2023/06/10 07:17:59;;;;;;;12.53;6.70;;;24.00;97.20;;;;;;1727633;28;20193;-71
2023/06/10 07:18:50;;;;;;;12.63;6.50;;;24.10;97.20;;;;;;1727809;28;20444;-71
2023/06/10 07:19:43;;;;;;;9.57;7.10;;;24.10;97.20;;;;;;1727763;28;20444;-70
2023/06/10 07:20:34;;;;;;;8.23;6.22;;;24.10;97.20;;;;;;1727510;28;20247;-70
2023/06/10 07:21:28;;;;;;;10.57;7.33;;;24.20;97.20;;;;;;1727656;28;20207;-71
2023/06/10 07:22:19;;;;;;;12.60;6.50;;;24.20;97.20;;;;;;1725095;28;20224;-71
2023/06/10 07:23:10;;;;;;;8.53;6.37;;;24.30;97.20;;;;;;1727532;28;20200;-70
2023/06/10 07:24:01;;;;;;;7.45;6.60;;;24.30;97.20;;;;;;1727700;28;20192;-70
2023/06/10 07:24:54;;;;;;;7.43;6.73;;;24.30;97.20;;;;;;1727404;28;20193;-70
2023/06/10 07:25:45;;;;;;;8.52;6.10;;;24.30;97.20;;;;;;1727261;28;20201;-72
2023/06/10 07:26:37;;;;;;;11.83;6.33;;;24.40;97.20;;;;;;1727667;28;20196;-70
2023/06/10 07:27:27;;;;;;;9.98;7.30;;;24.40;97.20;;;;;;1727711;28;20204;-71
2023/06/10 07:28:19;;;;;;;32.33;8.00;;;24.50;97.20;;;;;;1727770;28;20289;-69
2023/06/10 07:29:10;;;;;;;15.70;6.65;;;24.50;97.20;;;;;;1727738;28;20205;-70
2023/06/10 07:30:02;;;;;;;12.90;7.03;;;24.50;97.20;;;;;;1727911;28;20279;-71
2023/06/10 07:30:52;;;;;;;7.72;6.30;;;24.50;97.20;;;;;;1727169;28;20232;-70
2023/06/10 07:31:44;;;;;;;8.27;7.47;;;24.60;97.20;;;;;;1727427;28;20231;-70
2023/06/10 07:32:35;;;;;;;7.60;7.00;;;24.60;97.20;;;;;;1727696;28;20251;-71
2023/06/10 07:33:27;;;;;;;7.20;6.40;;;24.60;97.20;;;;;;1727738;28;20197;-70
2023/06/10 07:34:17;;;;;;;7.63;6.85;;;24.60;97.20;;;;;;1727764;28;20217;-71
2023/06/10 07:35:11;;;;;;;20.80;7.87;;;24.60;97.20;;;;;;1727562;28;20208;-71
2023/06/10 07:36:02;;;;;;;11.90;7.32;;;24.60;97.20;;;;;;1720616;28;20209;-71
2023/06/10 07:36:53;;;;;;;7.67;6.97;;;24.60;97.20;;;;;;1720834;28;20205;-71
2023/06/10 07:37:44;;;;;;;14.63;7.40;;;24.60;97.20;;;;;;1720901;28;20236;-70
2023/06/10 07:38:37;;;;;;;7.97;7.07;;;24.70;97.20;;;;;;1720993;28;20300;-71
2023/06/10 07:39:28;;;;;;;7.15;6.45;;;24.70;97.20;;;;;;1720863;28;20201;-70
2023/06/10 07:40:19;;;;;;;7.83;7.13;;;24.70;97.20;;;;;;1720783;28;20203;-71
2023/06/10 07:41:11;;;;;;;7.32;6.63;;;24.70;97.20;;;;;;1720919;28;20205;-70
2023/06/10 07:42:02;;;;;;;7.83;7.13;;;24.60;97.20;;;;;;1720942;28;20280;-71
2023/06/10 07:42:53;;;;;;;7.05;6.35;;;24.60;97.20;;;;;;1720790;28;20460;-71
2023/06/10 07:43:45;;;;;;;10.40;6.87;;;24.60;97.20;;;;;;1726096;28;20203;-70
2023/06/10 07:44:36;;;;;;;8.45;6.80;;;24.60;97.20;;;;;;1724856;28;20203;-71
2023/06/10 07:45:27;;;;;;;7.47;6.63;;;24.60;97.20;;;;;;1726988;28;20207;-70
2023/06/10 07:46:18;;;;;;;11.07;7.63;;;24.60;97.20;;;;;;1727132;28;20201;-71
2023/06/10 07:47:10;;;;;;;8.73;6.67;;;24.60;97.20;;;;;;1727343;28;20189;-72
2023/06/10 07:48:01;;;;;;;7.55;6.82;;;24.70;97.20;;;;;;1727457;28;20200;-71
2023/06/10 07:48:52;;;;;;;7.43;6.73;;;24.70;97.20;;;;;;1727478;28;20216;-71
2023/06/10 07:49:43;;;;;;;9.07;6.05;;;24.80;97.20;;;;;;1727547;28;20575;-71
2023/06/10 07:50:36;;;;;;;6.37;5.77;;;24.80;97.20;;;;;;1727360;28;20216;-71
2023/06/10 07:51:27;;;;;;;6.90;6.40;;;24.80;97.20;;;;;;1727422;28;20201;-71
2023/06/10 07:52:19;;;;;;;7.93;7.33;;;24.90;97.20;;;;;;1727504;28;20435;-71
2023/06/10 07:53:09;;;;;;;6.47;5.97;;;24.80;97.20;;;;;;1727417;28;20200;-71
2023/06/10 07:54:01;;;;;;;7.63;6.93;;;24.80;97.20;;;;;;1727527;28;20201;-70
2023/06/10 07:54:52;;;;;;;6.73;6.20;;;24.80;97.20;;;;;;1727285;28;20939;-71
2023/06/10 07:55:44;;;;;;;6.60;6.00;;;24.80;97.20;;;;;;1727061;28;20789;-70
2023/06/10 07:56:35;;;;;;;7.53;6.43;;;24.80;97.20;;;;;;1727452;28;20467;-71
2023/06/10 07:57:26;;;;;;;6.63;5.47;;;24.90;97.20;;;;;;1727341;28;20534;-71
2023/06/10 07:58:17;;;;;;;7.70;6.95;;;24.90;97.20;;;;;;1727392;28;20203;-70
2023/06/10 07:59:09;;;;;;;6.40;5.57;;;25.00;97.20;;;;;;1725937;28;20195;-72
2023/06/10 08:00:01;;;;;;;6.50;5.90;;;25.00;97.20;;;;;;1725944;28;20215;-70
2023/06/10 08:00:54;;;;;;;7.43;6.30;;;25.00;97.20;;;;;;1727044;28;20470;-70
2023/06/10 08:01:46;;;;;;;7.80;6.70;;;25.10;97.20;;;;;;1726823;28;20443;-69
2023/06/10 08:02:38;;;;;;;8.17;6.47;;;25.10;97.20;;;;;;1726471;28;20200;-71
2023/06/10 08:03:30;;;;;;;6.95;6.15;;;25.10;97.20;;;;;;1726656;28;20924;-71
2023/06/10 08:04:21;;;;;;;6.80;6.30;;;25.20;97.20;;;;;;1726711;28;20750;-71
2023/06/10 08:05:12;;;;;;;6.73;6.10;;;25.20;97.20;;;;;;1726579;28;20467;-71
2023/06/10 08:06:06;;;;;;;8.67;7.23;;;25.20;97.20;;;;;;1726490;28;20436;-70
2023/06/10 08:06:57;;;;;;;11.13;6.60;;;25.30;97.20;;;;;;1724066;28;20448;-71
2023/06/10 08:07:49;;;;;;;8.60;6.53;;;25.30;97.20;;;;;;1727134;28;20200;-70
2023/06/10 08:08:42;;;;;;;9.47;6.90;;;25.30;97.20;;;;;;1727390;28;20204;-71
2023/06/10 08:09:34;;;;;;;11.03;6.33;;;25.40;97.20;;;;;;1727361;28;20465;-70
2023/06/10 08:10:25;;;;;;;6.57;5.97;;;25.40;97.20;;;;;;1726757;28;20436;-71
2023/06/10 08:11:17;;;;;;;7.37;6.67;;;25.50;97.20;;;;;;1726645;28;20724;-71
2023/06/10 08:12:08;;;;;;;7.47;6.18;;;25.50;97.20;;;;;;1726707;28;20626;-70
2023/06/10 08:12:59;;;;;;;7.23;6.50;;;25.50;97.20;;;;;;1726711;28;20709;-71
2023/06/10 08:13:50;;;;;;;6.87;6.20;;;25.50;97.20;;;;;;1727127;28;20448;-71
2023/06/10 08:14:42;;;;;;;9.87;6.63;;;25.50;97.20;;;;;;1727405;28;20938;-70
2023/06/10 08:15:32;;;;;;;8.32;6.57;;;25.60;97.20;;;;;;1726933;28;20204;-71
2023/06/10 08:16:24;;;;;;;7.67;6.27;;;25.60;97.20;;;;;;1727348;28;20277;-70
2023/06/10 08:17:15;;;;;;;7.05;6.32;;;25.70;97.20;;;;;;1727262;28;20714;-71
2023/06/10 08:18:07;;;;;;;7.33;6.63;;;25.70;97.20;;;;;;1727352;28;20892;-70
2023/06/10 08:18:57;;;;;;;6.93;6.22;;;25.80;97.20;;;;;;1724893;28;20189;-70
2023/06/10 08:19:49;;;;;;;6.60;6.10;;;25.80;97.20;;;;;;1727018;28;20196;-71
2023/06/10 08:20:40;;;;;;;6.60;6.10;;;25.80;97.20;;;;;;1727248;28;20220;-71
2023/06/10 08:21:33;;;;;;;7.00;6.50;;;25.80;97.20;;;;;;1727352;28;20455;-71
2023/06/10 08:22:24;;;;;;;6.67;6.17;;;25.80;97.20;;;;;;1727305;28;20200;-71
2023/06/10 08:23:16;;;;;;;7.13;6.53;;;25.80;97.20;;;;;;1727336;28;20444;-71
2023/06/10 08:24:07;;;;;;;6.73;6.13;;;25.80;97.20;;;;;;1727294;28;20211;-71
2023/06/10 08:24:59;;;;;;;7.67;7.07;;;25.90;97.20;;;;;;1727338;28;20942;-71
2023/06/10 08:25:50;;;;;;;7.05;6.43;;;25.90;97.20;;;;;;1727011;28;20443;-71
2023/06/10 08:26:42;;;;;;;7.07;5.63;;;25.90;97.20;;;;;;1727178;28;20216;-70
2023/06/10 08:27:33;;;;;;;6.70;6.20;;;25.90;97.20;;;;;;1727195;28;20549;-71
2023/06/10 08:28:25;;;;;;;6.63;5.90;;;26.00;97.20;;;;;;1727348;28;20450;-71
2023/06/10 08:29:18;;;;;;;6.70;6.20;;;26.00;97.20;;;;;;1726880;28;20262;-71
2023/06/10 08:30:12;;;;;;;7.17;6.50;;;26.00;97.20;;;;;;1727209;28;20439;-71
2023/06/10 08:31:03;;;;;;;6.20;5.70;;;26.00;97.20;;;;;;1727168;28;20443;-71
2023/06/10 08:31:56;;;;;;;6.73;6.23;;;26.00;97.20;;;;;;1727118;28;20288;-71
2023/06/10 08:32:47;;;;;;;6.95;6.45;;;26.10;97.20;;;;;;1727158;28;20205;-70
2023/06/10 08:33:39;;;;;;;6.67;6.17;;;26.10;97.20;;;;;;1727317;28;20197;-71
2023/06/10 08:34:30;;;;;;;13.57;12.23;;;26.10;97.20;;;;;;1727263;28;20450;-70
2023/06/10 08:35:21;;;;;;;7.80;7.10;;;26.20;97.20;;;;;;1727351;28;20220;-71
2023/06/10 08:36:12;;;;;;;7.80;7.10;;;26.20;97.20;;;;;;1726895;28;20208;-70
2023/06/10 08:37:06;;;;;;;7.57;6.87;;;26.20;97.20;;;;;;1727344;28;20518;-70
2023/06/10 08:37:57;;;;;;;6.90;6.40;;;26.20;97.20;;;;;;1724769;28;20193;-72
2023/06/10 08:38:48;;;;;;;6.77;6.17;;;26.30;97.20;;;;;;1727201;28;20436;-70
2023/06/10 08:39:39;;;;;;;6.70;6.20;;;26.30;97.20;;;;;;1726978;28;20446;-71
2023/06/10 08:40:31;;;;;;;13.37;6.30;;;26.30;97.20;;;;;;1727053;28;20446;-71
2023/06/10 08:41:26;;;;;;;7.80;6.95;;;26.30;97.20;;;;;;1727364;28;20572;-71
2023/06/10 08:42:24;;;;;;;8.20;7.40;;;26.30;97.20;;;;;;1724569;28;20199;-71
2023/06/10 08:43:21;;;;;;;17.70;6.90;;;26.30;97.20;;;;;;1727220;28;20943;-71
2023/06/10 08:44:23;;;;;;;9.70;6.83;;;26.30;97.20;;;;;;1727209;28;20436;-70
2023/06/10 08:45:18;;;;;;;10.57;9.47;;;26.30;97.20;;;;;;1727292;28;20431;-70
2023/06/10 08:46:10;;;;;;;7.00;6.43;;;26.30;97.20;;;;;;1726958;28;20493;-71
2023/06/10 08:47:06;;;;;;;14.07;7.23;;;26.30;97.20;;;;;;1727434;28;20497;-70
2023/06/10 08:47:58;;;;;;;7.27;6.47;;;26.40;97.20;;;;;;1720742;28;20466;-70
2023/06/10 08:48:55;;;;;;;13.30;6.70;;;26.30;97.20;;;;;;1720490;28;20443;-70
2023/06/10 08:49:48;;;;;;;27.40;7.83;;;26.40;97.20;;;;;;1724215;28;21227;-69
2023/06/10 08:50:40;;;;;;;46.23;11.10;;;26.40;97.20;;;;;;1727130;28;20838;-70
2023/06/10 08:51:35;;;;;;;41.07;9.10;;;26.40;97.20;;;;;;1727229;28;20450;-70
2023/06/10 08:52:33;;;;;;;30.93;9.40;;;26.50;97.20;;;;;;1727157;28;20451;-71
2023/06/10 08:53:27;;;;;;;7.37;6.20;;;26.50;97.20;;;;;;1725083;28;20775;-71
2023/06/10 08:54:21;;;;;;;19.90;7.50;;;26.50;97.20;;;;;;1727188;28;20455;-70
2023/06/10 08:55:19;;;;;;;25.70;7.90;;;26.50;97.20;;;;;;1727187;28;20446;-70
2023/06/10 08:56:11;;;;;;;6.10;5.70;;;26.50;97.20;;;;;;1726847;28;20869;-70
2023/06/10 08:57:07;;;;;;;6.20;5.67;;;26.50;97.20;;;;;;1727017;28;20447;-71
2023/06/10 08:57:59;;;;;;;6.43;5.73;;;26.50;97.20;;;;;;1727143;28;20467;-70
2023/06/10 08:58:52;;;;;;;5.80;5.30;;;26.50;97.20;;;;;;1727323;28;20534;-70
2023/06/10 08:59:43;;;;;;;6.37;5.73;;;26.50;97.20;;;;;;1726863;28;20448;-70
2023/06/10 09:00:36;;;;;;;6.30;5.70;;;26.40;97.20;;;;;;1727035;28;20509;-70
2023/06/10 09:01:28;;;;;;;6.10;5.60;;;26.40;97.20;;;;;;1726580;28;20447;-70
2023/06/10 09:02:21;;;;;;;6.00;5.43;;;26.40;97.20;;;;;;1726676;28;20435;-70
2023/06/10 09:03:12;;;;;;;6.77;5.90;;;26.30;97.20;;;;;;1726801;28;20444;-70
2023/06/10 09:04:05;;;;;;;11.33;6.40;;;26.30;97.20;;;;;;1727581;28;20513;-70
2023/06/10 09:04:56;;;;;;;12.30;6.83;;;26.30;97.20;;;;;;1727233;28;20452;-70
2023/06/10 09:05:49;;;;;;;11.10;6.80;;;26.40;97.20;;;;;;1726975;28;20935;-70
2023/06/10 09:06:40;;;;;;;14.90;7.03;;;26.40;97.20;;;;;;1727251;28;20447;-71
2023/06/10 09:07:34;;;;;;;7.70;5.90;;;26.50;97.20;;;;;;1727288;28;20447;-71
2023/06/10 09:08:25;;;;;;;8.50;7.53;;;26.50;97.20;;;;;;1727342;28;20444;-70
2023/06/10 09:09:17;;;;;;;9.03;6.30;;;26.60;97.20;;;;;;1727261;28;20530;-71
2023/06/10 09:10:09;;;;;;;8.47;6.40;;;26.70;97.20;;;;;;1726865;28;20943;-70
2023/06/10 09:11:01;;;;;;;10.53;6.60;;;26.70;97.20;;;;;;1727259;28;20829;-70
2023/06/10 09:11:52;;;;;;;8.47;6.77;;;26.70;97.20;;;;;;1727285;28;20454;-70
2023/06/10 09:12:44;;;;;;;10.90;6.80;;;26.80;97.20;;;;;;1727354;28;20443;-70
2023/06/10 09:13:35;;;;;;;8.97;6.40;;;26.80;97.20;;;;;;1726791;28;20595;-70
2023/06/10 09:14:27;;;;;;;9.53;6.60;;;26.80;97.20;;;;;;1727249;28;20546;-71
2023/06/10 09:15:18;;;;;;;11.47;7.23;;;26.90;97.20;;;;;;1727113;28;20447;-71
2023/06/10 09:16:11;;;;;;;15.73;7.73;;;26.90;97.20;;;;;;1726711;28;20512;-71
2023/06/10 09:17:03;;;;;;;20.90;6.93;;;26.90;97.20;;;;;;1727123;28;20979;-71
2023/06/10 09:17:54;;;;;;;7.80;6.27;;;27.00;97.20;;;;;;1726627;28;20507;-71
2023/06/10 09:18:45;;;;;;;14.03;7.70;;;27.00;97.20;;;;;;1727036;28;20454;-71
2023/06/10 09:19:39;;;;;;;8.00;6.50;;;27.10;97.20;;;;;;1726903;28;20454;-71
2023/06/10 09:20:29;;;;;;;6.80;6.30;;;27.10;97.20;;;;;;1724576;28;20200;-71
2023/06/10 09:21:22;;;;;;;6.40;5.90;;;27.10;97.20;;;;;;1727000;28;20514;-71
2023/06/10 09:22:13;;;;;;;9.10;5.60;;;27.10;97.20;;;;;;1727203;28;20204;-71
2023/06/10 09:23:10;;;;;;;7.30;5.97;;;27.10;97.20;;;;;;1727225;28;20454;-71
2023/06/10 09:24:01;;;;;;;6.50;6.00;;;27.10;97.20;;;;;;1726874;28;20447;-70
2023/06/10 09:25:02;;;;;;;13.67;5.60;;;27.10;97.20;;;;;;1727059;28;20447;-70
2023/06/10 09:25:57;;;;;;;16.13;7.00;;;27.10;97.20;;;;;;1724393;28;20455;-70
2023/06/10 09:26:50;;;;;;;10.73;6.70;;;27.10;97.20;;;;;;1727085;28;20443;-71
2023/06/10 09:27:48;;;;;;;11.00;6.70;;;27.20;97.20;;;;;;1724453;28;20447;-71
2023/06/10 09:28:42;;;;;;;18.00;8.00;;;27.20;97.20;;;;;;1726742;28;20444;-70
2023/06/10 09:29:45;;;;;;;17.67;7.80;;;27.30;97.20;;;;;;1725826;28;20923;-71